createdAt,value
2018-12-20T00:01:12.894Z,12.13
2018-12-20T00:04:20.495Z,11.17
2018-12-20T00:07:28.707Z,11.30
2018-12-20T00:10:36.600Z,11.27
2018-12-20T00:13:44.192Z,12.27
2018-12-20T00:17:10.520Z,12.23
2018-12-20T00:20:18.416Z,11.63
2018-12-20T00:23:38.770Z,12.73
2018-12-20T00:26:46.556Z,10.63
2018-12-20T00:29:54.225Z,11.93
2018-12-20T00:33:02.073Z,12.40
2018-12-20T00:36:09.792Z,11.03
2018-12-20T00:39:18.440Z,12.13
2018-12-20T00:42:25.991Z,11.37
2018-12-20T00:45:33.734Z,12.00
2018-12-20T00:48:42.119Z,11.73
2018-12-20T00:51:49.756Z,12.30
2018-12-20T00:54:57.903Z,12.47
2018-12-20T00:58:05.601Z,11.90
2018-12-20T01:01:27.766Z,11.57
2018-12-20T01:04:35.672Z,11.10
2018-12-20T01:07:43.268Z,11.87
2018-12-20T01:10:50.984Z,12.17
2018-12-20T01:13:59.029Z,12.50
2018-12-20T01:17:07.520Z,12.23
2018-12-20T01:20:15.639Z,12.60
2018-12-20T01:23:23.443Z,12.03
2018-12-20T01:26:31.039Z,12.80
2018-12-20T01:29:39.031Z,12.63
2018-12-20T01:32:46.965Z,13.00
2018-12-20T01:35:54.880Z,12.87
2018-12-20T01:39:03.592Z,11.80
2018-12-20T01:42:11.682Z,11.63
2018-12-20T01:45:19.586Z,12.43
2018-12-20T01:48:39.482Z,12.47
2018-12-20T01:51:47.457Z,13.63
2018-12-20T01:54:55.039Z,14.43
2018-12-20T01:58:03.218Z,14.10
2018-12-20T02:01:11.023Z,14.00
2018-12-20T02:04:18.984Z,14.37
2018-12-20T02:07:27.032Z,14.97
2018-12-20T02:10:35.154Z,15.10
2018-12-20T02:13:43.107Z,14.47
2018-12-20T02:16:51.170Z,13.33
2018-12-20T02:19:59.378Z,13.57
2018-12-20T02:23:07.389Z,14.37
2018-12-20T02:26:15.331Z,14.40
2018-12-20T02:29:23.639Z,15.10
2018-12-20T02:32:45.259Z,14.37
2018-12-20T02:35:53.115Z,13.97
2018-12-20T02:39:00.763Z,14.43
2018-12-20T02:42:08.861Z,14.37
2018-12-20T02:45:16.751Z,13.77
2018-12-20T02:48:24.713Z,14.87
2018-12-20T02:51:32.497Z,14.20
2018-12-20T02:54:40.343Z,14.40
2018-12-20T02:58:00.677Z,15.70
2018-12-20T03:01:08.974Z,14.90
2018-12-20T03:04:29.774Z,14.47
2018-12-20T03:07:50.256Z,14.90
2018-12-20T03:11:09.922Z,15.07
2018-12-20T03:14:17.813Z,15.80
2018-12-20T03:17:25.748Z,15.47
2018-12-20T03:20:34.088Z,15.17
2018-12-20T03:23:41.903Z,13.77
2018-12-20T03:26:49.728Z,13.90
2018-12-20T03:29:58.073Z,15.33
2018-12-20T03:33:05.805Z,15.50
2018-12-20T03:36:26.536Z,14.80
2018-12-20T03:39:46.535Z,15.37
2018-12-20T03:42:54.576Z,15.90
2018-12-20T03:46:14.843Z,14.60
2018-12-20T03:49:22.685Z,15.27
2018-12-20T03:52:31.388Z,15.10
2018-12-20T03:55:39.811Z,15.40
2018-12-20T03:58:47.643Z,16.13
2018-12-20T04:01:55.419Z,16.67
2018-12-20T04:05:03.785Z,16.17
2018-12-20T04:08:11.740Z,16.50
2018-12-20T04:11:19.534Z,15.97
2018-12-20T04:14:27.413Z,17.30
2018-12-20T04:17:35.496Z,16.53
2018-12-20T04:20:43.112Z,16.43
2018-12-20T04:24:02.303Z,15.73
2018-12-20T04:27:09.995Z,16.63
2018-12-20T04:30:17.588Z,16.43
2018-12-20T04:33:25.428Z,17.37
2018-12-20T04:36:33.324Z,16.13
2018-12-20T04:39:41.204Z,16.53
2018-12-20T04:43:01.189Z,16.37
2018-12-20T04:46:20.515Z,16.10
2018-12-20T04:49:29.587Z,16.43
2018-12-20T04:52:37.725Z,16.63
2018-12-20T04:55:57.870Z,15.90
2018-12-20T04:59:06.390Z,16.33
2018-12-20T05:02:14.451Z,15.73
2018-12-20T05:05:22.265Z,16.53
2018-12-20T05:08:30.124Z,17.00
2018-12-20T05:11:38.517Z,16.17
2018-12-20T05:14:46.687Z,16.57
2018-12-20T05:17:54.752Z,15.67
2018-12-20T05:21:02.517Z,17.03
2018-12-20T05:24:10.378Z,16.53
2018-12-20T05:27:18.211Z,15.93
2018-12-20T05:30:26.100Z,16.87
2018-12-20T05:33:33.863Z,15.83
2018-12-20T05:36:41.833Z,15.47
2018-12-20T05:39:49.535Z,16.83
2018-12-20T05:42:57.621Z,17.43
2018-12-20T05:46:06.304Z,17.80
2018-12-20T05:49:14.941Z,17.93
2018-12-20T05:52:22.856Z,17.20
2018-12-20T05:55:43.010Z,17.40
2018-12-20T05:59:03.661Z,17.17
2018-12-20T06:02:11.600Z,16.83
2018-12-20T06:05:31.875Z,16.80
2018-12-20T06:08:39.775Z,18.40
2018-12-20T06:11:47.291Z,17.90
2018-12-20T06:14:54.884Z,17.50
2018-12-20T06:18:14.996Z,18.63
2018-12-20T06:21:22.500Z,18.47
2018-12-20T06:24:30.375Z,18.53
2018-12-20T06:27:37.885Z,18.03
2018-12-20T06:30:57.771Z,17.87
2018-12-20T06:34:05.710Z,17.43
2018-12-20T06:37:13.599Z,17.60
2018-12-20T06:40:21.383Z,18.47
2018-12-20T06:43:29.072Z,18.00
2018-12-20T06:46:38.769Z,17.97
2018-12-20T06:49:46.320Z,17.83
2018-12-20T06:52:53.843Z,18.70
2018-12-20T06:56:01.450Z,18.20
2018-12-20T06:59:20.791Z,18.93
2018-12-20T07:02:28.337Z,18.20
2018-12-20T07:05:36.017Z,18.20
2018-12-20T07:08:43.639Z,18.23
2018-12-20T07:11:51.272Z,18.23
2018-12-20T07:14:59.067Z,18.47
2018-12-20T07:18:06.813Z,19.67
2018-12-20T07:21:14.324Z,18.83
2018-12-20T07:24:34.741Z,19.07
2018-12-20T07:27:54.347Z,18.03
2018-12-20T07:31:14.406Z,19.90
2018-12-20T07:34:36.369Z,19.03
2018-12-20T07:37:56.546Z,18.93
2018-12-20T07:41:17.985Z,17.80
2018-12-20T07:44:25.630Z,20.30
2018-12-20T07:47:33.348Z,18.27
2018-12-20T07:50:40.916Z,19.50
2018-12-20T07:54:01.962Z,18.90
2018-12-20T07:57:09.961Z,19.63
2018-12-20T08:00:34.385Z,19.77
2018-12-20T08:03:41.962Z,18.80
2018-12-20T08:06:49.527Z,18.80
2018-12-20T08:09:57.152Z,20.40
2018-12-20T08:13:04.754Z,19.37
2018-12-20T08:16:12.388Z,19.67
2018-12-20T08:19:20.013Z,18.47
2018-12-20T08:22:27.640Z,19.60
2018-12-20T08:25:47.867Z,18.23
2018-12-20T08:28:55.556Z,18.10
2018-12-20T08:32:03.159Z,19.37
2018-12-20T08:35:10.762Z,19.30
2018-12-20T08:38:32.081Z,19.52
2018-12-20T08:41:39.865Z,17.73
2018-12-20T08:44:47.479Z,19.03
2018-12-20T08:47:55.142Z,19.57
2018-12-20T08:51:15.705Z,19.20
2018-12-20T08:54:23.215Z,19.13
2018-12-20T08:57:30.751Z,19.67
2018-12-20T09:00:38.376Z,18.67
2018-12-20T09:03:58.259Z,20.23
2018-12-20T09:07:17.713Z,19.60
2018-12-20T09:10:38.358Z,19.03
2018-12-20T09:13:45.967Z,19.37
2018-12-20T09:16:53.451Z,18.63
2018-12-20T09:20:01.032Z,21.03
2018-12-20T09:23:21.819Z,21.17
2018-12-20T09:26:29.444Z,20.50
2018-12-20T09:29:37.060Z,20.43
2018-12-20T09:32:46.187Z,20.10
2018-12-20T09:35:53.776Z,20.30
2018-12-20T09:39:15.321Z,19.73
2018-12-20T09:42:22.876Z,19.40
2018-12-20T09:45:30.492Z,19.90
2018-12-20T09:48:38.084Z,20.37
2018-12-20T09:51:59.727Z,19.10
2018-12-20T09:55:21.359Z,20.33
2018-12-20T09:58:29.271Z,20.83
2018-12-20T10:01:36.809Z,20.13
2018-12-20T10:04:58.247Z,19.73
2018-12-20T10:08:06.168Z,19.90
2018-12-20T10:11:13.717Z,20.87
2018-12-20T10:14:21.272Z,19.80
2018-12-20T10:17:48.341Z,20.13
2018-12-20T10:21:15.724Z,19.13
2018-12-20T10:24:23.571Z,20.50
2018-12-20T10:27:31.760Z,18.77
2018-12-20T10:30:39.731Z,20.27
2018-12-20T10:33:47.313Z,20.13
2018-12-20T10:37:14.488Z,21.27
2018-12-20T10:40:37.971Z,20.60
2018-12-20T10:43:46.098Z,20.77
2018-12-20T10:46:55.724Z,19.53
2018-12-20T10:50:03.613Z,20.07
2018-12-20T10:53:11.241Z,20.23
2018-12-20T10:56:19.346Z,20.50
2018-12-20T10:59:26.921Z,19.97
2018-12-20T11:02:39.562Z,18.87
2018-12-20T11:06:07.088Z,20.43
2018-12-20T11:09:20.796Z,20.67
2018-12-20T11:12:48.907Z,19.90
2018-12-20T11:15:56.420Z,19.17
2018-12-20T11:19:15.795Z,19.53
2018-12-20T11:22:44.001Z,20.60
2018-12-20T11:25:51.580Z,20.00
2018-12-20T11:28:59.324Z,19.93
2018-12-20T11:32:06.891Z,20.03
2018-12-20T11:35:26.468Z,19.93
2018-12-20T11:38:34.079Z,20.37
2018-12-20T11:41:41.667Z,20.17
2018-12-20T11:44:49.987Z,19.83
2018-12-20T11:47:57.583Z,19.43
2018-12-20T11:51:05.159Z,20.07
2018-12-20T11:54:12.684Z,19.20
2018-12-20T11:57:36.667Z,19.47
2018-12-20T12:00:58.519Z,18.97
2018-12-20T12:04:17.359Z,19.63
2018-12-20T12:07:36.859Z,19.17
2018-12-20T12:10:44.335Z,19.07
2018-12-20T12:13:51.992Z,20.00
2018-12-20T12:16:59.614Z,20.23
2018-12-20T12:20:08.619Z,20.57
2018-12-20T12:23:16.168Z,20.90
2018-12-20T12:26:23.749Z,19.70
2018-12-20T12:29:47.858Z,20.50
2018-12-20T12:33:10.977Z,19.47
2018-12-20T12:36:18.592Z,19.77
2018-12-20T12:39:26.120Z,18.13
2018-12-20T12:42:46.104Z,18.97
2018-12-20T12:45:54.393Z,19.97
2018-12-20T12:49:02.087Z,18.70
2018-12-20T12:52:09.619Z,19.87
2018-12-20T12:55:17.200Z,18.97
2018-12-20T12:58:25.252Z,20.43
2018-12-20T13:01:33.548Z,18.30
2018-12-20T13:04:41.133Z,19.30
2018-12-20T13:07:48.683Z,19.77
2018-12-20T13:10:58.324Z,20.43
2018-12-20T13:14:18.999Z,19.47
2018-12-20T13:17:38.296Z,17.20
2018-12-20T13:20:45.860Z,16.70
2018-12-20T13:23:53.494Z,17.30
2018-12-20T13:27:01.056Z,15.77
2018-12-20T13:30:20.649Z,16.77
2018-12-20T13:33:40.840Z,16.60
2018-12-20T13:36:48.428Z,16.30
2018-12-20T13:39:56.056Z,16.53
2018-12-20T13:43:04.436Z,17.07
2018-12-20T13:46:13.144Z,16.13
2018-12-20T13:49:20.810Z,16.57
2018-12-20T13:52:28.385Z,16.73
2018-12-20T13:55:35.972Z,16.00
2018-12-20T13:58:43.588Z,15.73
2018-12-20T14:01:51.203Z,15.73
2018-12-20T14:04:58.782Z,14.10
2018-12-20T14:08:05.845Z,15.90
2018-12-20T14:11:13.455Z,14.90
2018-12-20T14:14:32.600Z,14.63
2018-12-20T14:20:57.982Z,15.43
2018-12-20T14:27:25.595Z,14.93
2018-12-20T14:30:33.243Z,14.50
2018-12-20T14:33:40.836Z,14.23
2018-12-20T14:36:48.862Z,15.07
2018-12-20T14:39:56.497Z,13.67
2018-12-20T14:43:04.039Z,14.43
2018-12-20T14:46:11.987Z,15.23
2018-12-20T14:49:19.865Z,13.33
2018-12-20T14:52:27.372Z,14.87
2018-12-20T14:55:35.479Z,13.90
2018-12-20T14:58:44.128Z,15.33
2018-12-20T15:01:51.705Z,15.50
2018-12-20T15:04:59.706Z,15.10
2018-12-20T15:08:18.787Z,14.03
2018-12-20T15:11:27.106Z,14.43
2018-12-20T15:14:35.140Z,14.23
2018-12-20T15:17:42.709Z,14.50
2018-12-20T15:20:50.499Z,13.40
2018-12-20T15:23:58.810Z,14.30
2018-12-20T15:27:19.658Z,14.10
2018-12-20T15:30:27.136Z,12.47
2018-12-20T15:33:34.834Z,13.03
2018-12-20T15:36:42.944Z,13.33
2018-12-20T15:39:50.645Z,13.63
2018-12-20T15:42:59.024Z,14.03
2018-12-20T15:46:07.264Z,12.77
2018-12-20T15:49:26.399Z,13.00
2018-12-20T15:52:33.958Z,13.17
2018-12-20T15:55:41.802Z,12.73
2018-12-20T15:59:01.345Z,13.50
2018-12-20T16:02:09.148Z,12.60
2018-12-20T16:05:16.724Z,11.97
2018-12-20T16:08:38.348Z,12.47
2018-12-20T16:11:47.099Z,12.57
2018-12-20T16:14:54.926Z,12.33
2018-12-20T16:18:02.532Z,12.67
2018-12-20T16:21:21.343Z,16.33
2018-12-20T16:24:40.124Z,11.33
2018-12-20T16:27:47.754Z,11.87
2018-12-20T16:30:55.424Z,11.50
2018-12-20T16:34:03.021Z,12.47
2018-12-20T16:37:23.848Z,11.97
2018-12-20T16:40:31.404Z,12.30
2018-12-20T16:43:39.105Z,13.67
2018-12-20T16:46:47.013Z,16.77
2018-12-20T16:49:54.632Z,13.70
2018-12-20T16:53:02.237Z,14.83
2018-12-20T16:59:31.980Z,13.43
2018-12-20T17:02:50.268Z,13.50
2018-12-20T17:06:09.905Z,14.50
2018-12-20T17:09:17.465Z,13.77
2018-12-20T17:15:43.176Z,15.90
2018-12-20T17:19:01.568Z,14.00
2018-12-20T17:22:21.307Z,14.63
2018-12-20T17:25:40.819Z,13.37
2018-12-20T17:29:00.228Z,15.17
2018-12-20T17:32:07.816Z,13.97
2018-12-20T17:35:15.323Z,14.07
2018-12-20T17:38:23.270Z,14.83
2018-12-20T17:41:42.715Z,14.60
2018-12-20T17:45:00.764Z,14.47
2018-12-20T17:48:19.178Z,14.20
2018-12-20T17:51:38.017Z,14.90
2018-12-20T17:54:57.392Z,14.43
2018-12-20T17:58:14.959Z,15.67
2018-12-20T18:01:34.987Z,14.73
2018-12-20T18:04:42.605Z,14.43
2018-12-20T18:11:07.570Z,14.67
2018-12-20T18:14:26.786Z,13.47
2018-12-20T18:17:46.177Z,14.70
2018-12-20T18:21:08.655Z,13.33
2018-12-20T18:24:29.485Z,13.63
2018-12-20T18:27:48.371Z,14.07
2018-12-20T18:31:08.693Z,14.50
2018-12-20T18:34:16.956Z,14.37
2018-12-20T18:40:42.213Z,15.07
2018-12-20T18:43:49.889Z,13.97
2018-12-20T18:50:15.233Z,13.53
2018-12-20T18:53:22.777Z,11.77
2018-12-20T18:59:49.861Z,12.03
2018-12-20T19:02:57.341Z,13.33
2018-12-20T19:06:05.270Z,12.23
2018-12-20T19:09:12.862Z,13.97
2018-12-20T19:15:39.875Z,12.83
2018-12-20T19:18:47.456Z,13.23
2018-12-20T19:21:54.997Z,13.63
2018-12-20T19:25:02.475Z,12.83
2018-12-20T19:28:10.094Z,13.40
2018-12-20T19:31:32.839Z,12.67
2018-12-20T19:34:55.212Z,12.00
2018-12-20T19:38:22.263Z,13.40
2018-12-20T19:41:29.813Z,13.60
2018-12-20T19:44:37.652Z,13.10
2018-12-20T19:47:45.251Z,12.37
2018-12-20T19:50:52.732Z,12.77
2018-12-20T19:54:00.284Z,13.50
2018-12-20T19:57:07.788Z,12.67
2018-12-20T20:00:31.300Z,13.20
2018-12-20T20:03:53.968Z,12.60
2018-12-20T20:07:17.444Z,12.73
2018-12-20T20:10:24.986Z,12.50
2018-12-20T20:13:32.540Z,13.00
2018-12-20T20:16:41.039Z,11.23
2018-12-20T20:19:48.658Z,12.87
2018-12-20T20:22:56.152Z,11.07
2018-12-20T20:26:04.151Z,10.40
2018-12-20T20:29:11.988Z,10.40
2018-12-20T20:32:19.568Z,8.97
2018-12-20T20:35:42.413Z,9.37
2018-12-20T20:39:04.505Z,8.60
2018-12-20T20:42:38.064Z,8.07
2018-12-20T20:45:57.815Z,7.73
2018-12-20T20:49:20.713Z,7.33
2018-12-20T20:52:28.349Z,7.37
2018-12-20T20:55:35.904Z,7.63
2018-12-20T20:58:43.524Z,7.23
2018-12-20T21:02:06.212Z,7.90
2018-12-20T21:05:16.723Z,8.03
2018-12-20T21:08:24.304Z,7.93
2018-12-20T21:11:47.015Z,8.37
2018-12-20T21:15:09.511Z,8.17
2018-12-20T21:18:32.386Z,9.33
2018-12-20T21:21:55.066Z,9.30
2018-12-20T21:25:18.482Z,9.50
2018-12-20T21:28:40.800Z,9.07
2018-12-20T21:31:48.331Z,9.93
2018-12-20T21:34:55.851Z,9.53
2018-12-20T21:38:03.775Z,10.10
2018-12-20T21:41:26.655Z,9.70
2018-12-20T21:44:49.272Z,10.27
2018-12-20T21:48:12.840Z,9.97
2018-12-20T21:51:21.035Z,10.03
2018-12-20T21:54:28.516Z,9.67
2018-12-20T21:57:51.080Z,10.67
2018-12-20T22:01:12.733Z,10.10
2018-12-20T22:04:33.859Z,9.90
2018-12-20T22:07:41.423Z,10.00
2018-12-20T22:10:48.945Z,10.00
2018-12-20T22:13:56.540Z,10.07
2018-12-20T22:17:04.381Z,10.20
2018-12-20T22:20:11.935Z,9.93
2018-12-20T22:23:19.432Z,9.70
2018-12-20T22:26:26.899Z,10.10
2018-12-20T22:29:34.482Z,9.93
2018-12-20T22:32:55.328Z,9.60
2018-12-20T22:36:14.713Z,9.17
2018-12-20T22:39:36.363Z,9.43
2018-12-20T22:42:58.900Z,9.27
2018-12-20T22:46:21.500Z,9.77
2018-12-20T22:49:42.259Z,10.27
2018-12-20T22:52:49.836Z,10.07
2018-12-20T22:55:57.457Z,10.50
2018-12-20T22:59:05.453Z,9.70
2018-12-20T23:02:18.074Z,10.30
2018-12-20T23:05:22.542Z,10.23
2018-12-20T23:08:30.512Z,10.63
2018-12-20T23:11:38.024Z,11.23
2018-12-20T23:14:45.611Z,10.40
2018-12-20T23:17:53.135Z,11.10
2018-12-20T23:21:13.748Z,11.60
2018-12-20T23:24:37.107Z,11.37
2018-12-20T23:27:59.304Z,11.90
2018-12-20T23:31:20.697Z,11.23
2018-12-20T23:34:42.048Z,11.13
2018-12-20T23:38:06.692Z,11.43
2018-12-20T23:41:14.268Z,12.03
2018-12-20T23:44:22.755Z,12.27
2018-12-20T23:47:30.386Z,12.20
2018-12-20T23:50:37.979Z,12.47
2018-12-20T23:54:00.724Z,13.10
2018-12-20T23:57:21.235Z,13.37
